createdAt,value
2018-08-03T00:00:22.196Z,100569.00
2018-08-03T00:02:50.202Z,100564.00
2018-08-03T00:05:17.908Z,100564.00
2018-08-03T00:07:45.669Z,100561.00
2018-08-03T00:10:13.642Z,100556.00
2018-08-03T00:12:41.405Z,100557.00
2018-08-03T00:15:09.102Z,100555.00
2018-08-03T00:17:36.969Z,100554.00
2018-08-03T00:20:05.787Z,100552.00
2018-08-03T00:22:33.854Z,100554.00
2018-08-03T00:25:02.106Z,100553.00
2018-08-03T00:27:29.903Z,100552.00
2018-08-03T00:29:57.560Z,100557.00
2018-08-03T00:32:25.531Z,100556.00
2018-08-03T00:34:53.280Z,100556.00
2018-08-03T00:37:21.231Z,100559.00
2018-08-03T00:39:48.980Z,100560.00
2018-08-03T00:42:16.651Z,100561.00
2018-08-03T00:44:44.523Z,100558.00
2018-08-03T00:47:12.372Z,100555.00
2018-08-03T00:49:40.071Z,100562.00
2018-08-03T00:52:08.039Z,100564.00
2018-08-03T00:54:35.703Z,100559.00
2018-08-03T00:57:03.372Z,100555.00
2018-08-03T00:59:31.328Z,100560.00
2018-08-03T01:01:58.989Z,100569.00
2018-08-03T01:04:26.714Z,100566.00
2018-08-03T01:07:01.497Z,100572.00
2018-08-03T01:09:29.251Z,100574.00
2018-08-03T01:11:56.888Z,100570.00
2018-08-03T01:14:24.813Z,100569.00
2018-08-03T01:16:52.620Z,100565.00
2018-08-03T01:19:20.269Z,100565.00
2018-08-03T01:21:47.970Z,100559.00
2018-08-03T01:24:15.811Z,100556.00
2018-08-03T01:26:43.553Z,100557.00
2018-08-03T01:29:11.268Z,100561.00
2018-08-03T01:31:39.045Z,100562.00
2018-08-03T01:34:06.731Z,100561.00
2018-08-03T01:36:34.548Z,100560.00
2018-08-03T01:39:02.316Z,100551.00
2018-08-03T01:41:29.973Z,100555.00
2018-08-03T01:43:57.955Z,100555.00
2018-08-03T01:46:25.607Z,100554.00
2018-08-03T01:48:53.307Z,100554.00
2018-08-03T01:51:21.158Z,100553.00
2018-08-03T01:53:48.856Z,100549.00
2018-08-03T01:56:16.599Z,100549.00
2018-08-03T01:58:44.441Z,100548.00
2018-08-03T02:01:12.133Z,100541.00
2018-08-03T02:03:39.946Z,100538.00
2018-08-03T02:06:07.672Z,100546.00
2018-08-03T02:08:35.348Z,100547.00
2018-08-03T02:11:03.575Z,100549.00
2018-08-03T02:13:31.417Z,100549.00
2018-08-03T02:15:59.232Z,100550.00
2018-08-03T02:18:29.309Z,100553.00
2018-08-03T02:20:57.140Z,100554.00
2018-08-03T02:23:24.817Z,100552.00
2018-08-03T02:25:52.504Z,100552.00
2018-08-03T02:28:20.395Z,100554.00
2018-08-03T02:30:48.788Z,100549.00
2018-08-03T02:33:16.486Z,100553.00
2018-08-03T02:35:44.157Z,100551.00
2018-08-03T02:38:11.993Z,100553.00
2018-08-03T02:40:39.687Z,100549.00
2018-08-03T02:43:07.741Z,100556.00
2018-08-03T02:45:35.450Z,100565.00
2018-08-03T02:48:03.254Z,100565.00
2018-08-03T02:50:31.301Z,100560.00
2018-08-03T02:52:58.979Z,100556.00
2018-08-03T02:55:26.674Z,100555.00
2018-08-03T02:57:54.668Z,100557.00
2018-08-03T03:00:22.403Z,100557.00
2018-08-03T03:02:50.103Z,100561.00
2018-08-03T03:05:18.065Z,100562.00
2018-08-03T03:07:45.834Z,100569.00
2018-08-03T03:10:13.564Z,100568.00
2018-08-03T03:12:41.667Z,100570.00
2018-08-03T03:15:09.437Z,100568.00
2018-08-03T03:17:37.167Z,100567.00
2018-08-03T03:20:06.359Z,100565.00
2018-08-03T03:22:34.724Z,100573.00
2018-08-03T03:25:08.105Z,100568.00
2018-08-03T03:27:35.804Z,100570.00
2018-08-03T03:30:04.723Z,100567.00
2018-08-03T03:32:32.836Z,100572.00
2018-08-03T03:35:00.598Z,100580.00
2018-08-03T03:37:28.270Z,100582.00
2018-08-03T03:39:56.155Z,100573.00
2018-08-03T03:42:23.871Z,100571.00
2018-08-03T03:44:51.878Z,100570.00
2018-08-03T03:47:19.562Z,100570.00
2018-08-03T03:49:47.328Z,100570.00
2018-08-03T03:52:15.138Z,100579.00
2018-08-03T03:54:42.871Z,100580.00
2018-08-03T03:57:10.546Z,100582.00
2018-08-03T03:59:38.479Z,100586.00
2018-08-03T04:02:06.592Z,100586.00
2018-08-03T04:04:34.250Z,100594.00
2018-08-03T04:07:01.972Z,100592.00
2018-08-03T04:09:29.673Z,100593.00
2018-08-03T04:11:57.387Z,100592.00
2018-08-03T04:14:25.527Z,100589.00
2018-08-03T04:16:53.259Z,100590.00
2018-08-03T04:19:20.991Z,100597.00
2018-08-03T04:28:10.258Z,100599.00
2018-08-03T04:30:37.892Z,100596.00
2018-08-03T04:33:05.720Z,100598.00
2018-08-03T04:35:33.588Z,100605.00
2018-08-03T04:38:01.263Z,100603.00
2018-08-03T04:40:28.992Z,100602.00
2018-08-03T04:42:57.511Z,100610.00
2018-08-03T04:45:25.190Z,100599.00
2018-08-03T04:47:52.832Z,100601.00
2018-08-03T04:50:20.792Z,100605.00
2018-08-03T04:52:48.524Z,100606.00
2018-08-03T04:55:16.842Z,100605.00
2018-08-03T04:57:44.492Z,100611.00
2018-08-03T05:00:12.247Z,100612.00
2018-08-03T05:02:40.222Z,100615.00
2018-08-03T05:05:08.714Z,100607.00
2018-08-03T05:07:36.544Z,100608.00
2018-08-03T05:10:04.936Z,100612.00
2018-08-03T05:12:32.702Z,100613.00
2018-08-03T05:15:00.446Z,100620.00
2018-08-03T05:17:28.685Z,100614.00
2018-08-03T05:19:56.408Z,100616.00
2018-08-03T05:22:24.147Z,100622.00
2018-08-03T05:24:52.691Z,100620.00
2018-08-03T05:27:20.424Z,100620.00
2018-08-03T05:29:48.136Z,100622.00
2018-08-03T05:32:16.198Z,100627.00
2018-08-03T05:34:43.907Z,100632.00
2018-08-03T05:37:11.557Z,100630.00
2018-08-03T05:39:39.538Z,100632.00
2018-08-03T05:42:07.306Z,100630.00
2018-08-03T05:44:36.128Z,100636.00
2018-08-03T05:47:04.268Z,100633.00
2018-08-03T05:49:31.932Z,100636.00
2018-08-03T05:51:59.895Z,100633.00
2018-08-03T05:54:27.620Z,100628.00
2018-08-03T05:56:55.287Z,100631.00
2018-08-03T05:59:23.208Z,100625.00
2018-08-03T06:01:50.952Z,100625.00
2018-08-03T06:04:18.662Z,100624.00
2018-08-03T06:06:46.440Z,100624.00
2018-08-03T06:09:14.108Z,100621.00
2018-08-03T06:11:41.796Z,100619.00
2018-08-03T06:14:09.669Z,100623.00
2018-08-03T06:16:37.432Z,100619.00
2018-08-03T06:19:05.527Z,100619.00
2018-08-03T06:21:33.335Z,100624.00
2018-08-03T06:24:01.650Z,100618.00
2018-08-03T06:26:29.663Z,100624.00
2018-08-03T06:28:57.440Z,100622.00
2018-08-03T06:31:25.451Z,100620.00
2018-08-03T06:33:53.192Z,100622.00
2018-08-03T06:36:21.085Z,100620.00
2018-08-03T06:38:48.741Z,100617.00
2018-08-03T06:41:17.425Z,100622.00
2018-08-03T06:43:45.324Z,100620.00
2018-08-03T06:46:13.037Z,100622.00
2018-08-03T06:48:40.967Z,100625.00
2018-08-03T06:51:14.640Z,100624.00
2018-08-03T06:53:42.737Z,100624.00
2018-08-03T06:56:10.421Z,100626.00
2018-08-03T06:58:38.159Z,100622.00
2018-08-03T07:01:06.361Z,100621.00
2018-08-03T07:03:34.054Z,100622.00
2018-08-03T07:06:01.750Z,100622.00
2018-08-03T07:08:29.679Z,100627.00
2018-08-03T07:10:57.440Z,100627.00
2018-08-03T07:13:25.116Z,100628.00
2018-08-03T07:15:53.181Z,100626.00
2018-08-03T07:18:20.881Z,100629.00
2018-08-03T07:20:49.022Z,100622.00
2018-08-03T07:23:16.724Z,100609.00
2018-08-03T07:25:44.315Z,100610.00
2018-08-03T07:28:13.890Z,100605.00
2018-08-03T07:30:41.917Z,100613.00
2018-08-03T07:33:09.924Z,100613.00
2018-08-03T07:35:37.650Z,100612.00
2018-08-03T07:38:05.356Z,100605.00
2018-08-03T07:40:33.411Z,100603.00
2018-08-03T07:43:01.110Z,100602.00
2018-08-03T07:45:28.863Z,100604.00
2018-08-03T07:47:56.837Z,100607.00
2018-08-03T07:50:24.679Z,100607.00
2018-08-03T07:52:52.531Z,100611.00
2018-08-03T07:55:20.410Z,100607.00
2018-08-03T07:57:48.121Z,100606.00
2018-08-03T08:00:15.851Z,100605.00
2018-08-03T08:02:43.981Z,100609.00
2018-08-03T08:05:11.654Z,100609.00
2018-08-03T08:07:39.324Z,100615.00
2018-08-03T08:10:07.145Z,100613.00
2018-08-03T08:12:34.808Z,100609.00
2018-08-03T08:15:02.549Z,100609.00
2018-08-03T08:17:30.309Z,100613.00
2018-08-03T08:19:57.988Z,100606.00
2018-08-03T08:22:25.660Z,100599.00
2018-08-03T08:24:53.471Z,100601.00
2018-08-03T08:27:21.133Z,100599.00
2018-08-03T08:29:50.615Z,100604.00
2018-08-03T08:32:18.476Z,100604.00
2018-08-03T08:34:46.107Z,100595.00
2018-08-03T08:37:14.066Z,100592.00
2018-08-03T08:39:41.764Z,100593.00
2018-08-03T08:42:09.404Z,100591.00
2018-08-03T08:44:37.168Z,100595.00
2018-08-03T08:47:11.710Z,100588.00
2018-08-03T08:49:39.451Z,100586.00
2018-08-03T08:52:06.789Z,100585.00
2018-08-03T08:54:34.799Z,100580.00
2018-08-03T08:57:02.458Z,100574.00
2018-08-03T08:59:30.084Z,100583.00
2018-08-03T09:01:58.104Z,100586.00
2018-08-03T09:04:25.757Z,100576.00
2018-08-03T09:06:53.561Z,100577.00
2018-08-03T09:09:21.968Z,100578.00
2018-08-03T09:11:49.688Z,100577.00
2018-08-03T09:14:17.398Z,100576.00
2018-08-03T09:16:45.539Z,100575.00
2018-08-03T09:19:13.230Z,100574.00
2018-08-03T09:21:40.928Z,100572.00
2018-08-03T09:24:09.058Z,100568.00
2018-08-03T09:26:36.677Z,100564.00
2018-08-03T09:29:04.371Z,100563.00
2018-08-03T09:31:32.258Z,100560.00
2018-08-03T09:33:59.902Z,100554.00
2018-08-03T09:36:27.663Z,100552.00
2018-08-03T09:38:56.096Z,100555.00
2018-08-03T09:41:23.804Z,100546.00
2018-08-03T09:43:51.498Z,100549.00
2018-08-03T09:46:19.483Z,100543.00
2018-08-03T09:48:47.277Z,100533.00
2018-08-03T09:51:15.056Z,100534.00
2018-08-03T09:53:43.136Z,100530.00
2018-08-03T09:56:10.818Z,100530.00
2018-08-03T09:58:38.446Z,100525.00
2018-08-03T10:01:12.336Z,100519.00
2018-08-03T10:03:40.807Z,100520.00
2018-08-03T10:06:08.887Z,100520.00
2018-08-03T10:08:37.099Z,100518.00
2018-08-03T10:11:04.795Z,100526.00
2018-08-03T10:13:32.575Z,100519.00
2018-08-03T10:16:00.250Z,100511.00
2018-08-03T10:18:27.989Z,100514.00
2018-08-03T10:20:56.076Z,100508.00
2018-08-03T10:23:23.911Z,100510.00
2018-08-03T10:25:51.592Z,100502.00
2018-08-03T10:28:19.525Z,100495.00
2018-08-03T10:30:47.580Z,100490.00
2018-08-03T10:33:15.282Z,100495.00
2018-08-03T10:35:43.415Z,100491.00
2018-08-03T10:38:11.442Z,100487.00
2018-08-03T10:40:39.128Z,100484.00
2018-08-03T10:43:07.253Z,100479.00
2018-08-03T10:45:35.031Z,100482.00
2018-08-03T10:48:02.936Z,100478.00
2018-08-03T10:50:30.595Z,100471.00
2018-08-03T10:52:58.257Z,100473.00
2018-08-03T10:55:26.305Z,100468.00
2018-08-03T10:57:53.979Z,100464.00
2018-08-03T11:00:29.087Z,100464.00
2018-08-03T11:02:57.294Z,100458.00
2018-08-03T11:05:26.279Z,100455.00
2018-08-03T11:07:54.321Z,100451.00
2018-08-03T11:10:22.001Z,100454.00
2018-08-03T11:12:50.712Z,100454.00
2018-08-03T11:15:18.781Z,100453.00
2018-08-03T11:17:47.808Z,100448.00
2018-08-03T11:20:15.706Z,100443.00
2018-08-03T11:22:43.677Z,100443.00
2018-08-03T11:25:11.348Z,100440.00
2018-08-03T11:27:39.241Z,100438.00
2018-08-03T11:30:08.229Z,100431.00
2018-08-03T11:32:36.273Z,100433.00
2018-08-03T11:35:04.279Z,100436.00
2018-08-03T11:37:31.937Z,100426.00
2018-08-03T11:39:59.570Z,100422.00
2018-08-03T11:42:27.477Z,100421.00
2018-08-03T11:44:55.183Z,100418.00
2018-08-03T11:47:22.804Z,100419.00
2018-08-03T11:49:50.484Z,100410.00
2018-08-03T11:52:18.126Z,100418.00
2018-08-03T11:54:45.785Z,100415.00
2018-08-03T11:57:13.747Z,100407.00
2018-08-03T11:59:41.471Z,100405.00
2018-08-03T12:02:09.305Z,100394.00
2018-08-03T12:04:37.096Z,100397.00
2018-08-03T12:07:08.596Z,100398.00
2018-08-03T12:09:36.311Z,100389.00
2018-08-03T12:12:04.080Z,100387.00
2018-08-03T12:14:31.776Z,100394.00
2018-08-03T12:16:59.714Z,100399.00
2018-08-03T12:19:27.334Z,100398.00
2018-08-03T12:21:55.034Z,100392.00
2018-08-03T12:24:23.187Z,100396.00
2018-08-03T12:26:50.849Z,100385.00
2018-08-03T12:29:18.550Z,100381.00
2018-08-03T12:31:46.443Z,100378.00
2018-08-03T12:34:14.112Z,100372.00
2018-08-03T12:36:41.785Z,100365.00
2018-08-03T12:39:10.669Z,100366.00
2018-08-03T12:41:38.598Z,100363.00
2018-08-03T12:44:06.576Z,100361.00
2018-08-03T12:46:34.496Z,100362.00
2018-08-03T12:49:02.699Z,100352.00
2018-08-03T12:51:30.398Z,100348.00
2018-08-03T12:53:58.064Z,100344.00
2018-08-03T12:56:25.808Z,100343.00
2018-08-03T12:58:53.388Z,100343.00
2018-08-03T13:01:21.387Z,100336.00
2018-08-03T13:03:49.465Z,100335.00
2018-08-03T13:06:17.224Z,100336.00
2018-08-03T13:08:44.894Z,100335.00
2018-08-03T13:11:12.510Z,100331.00
2018-08-03T13:13:40.472Z,100325.00
2018-08-03T13:16:08.140Z,100318.00
2018-08-03T13:18:36.467Z,100326.00
2018-08-03T13:21:32.820Z,100324.00
2018-08-03T13:24:08.937Z,100315.00
2018-08-03T13:26:52.673Z,100315.00
2018-08-03T13:29:20.315Z,100311.00
2018-08-03T13:31:47.941Z,100307.00
2018-08-03T13:34:24.946Z,100307.00
2018-08-03T13:37:08.051Z,100303.00
2018-08-03T13:39:35.988Z,100299.00
2018-08-03T13:42:07.858Z,100301.00
2018-08-03T13:44:35.835Z,100295.00
2018-08-03T13:47:07.524Z,100302.00
2018-08-03T13:49:35.140Z,100292.00
2018-08-03T13:52:15.724Z,100292.00
2018-08-03T13:54:43.476Z,100292.00
2018-08-03T13:57:11.117Z,100293.00
2018-08-03T13:59:39.412Z,100294.00
2018-08-03T14:02:26.284Z,100287.00
2018-08-03T14:04:54.685Z,100287.00
2018-08-03T14:07:22.892Z,100286.00
2018-08-03T14:09:51.191Z,100281.00
2018-08-03T14:12:18.946Z,100274.00
2018-08-03T14:14:46.568Z,100273.00
2018-08-03T14:17:14.397Z,100277.00
2018-08-03T14:19:48.917Z,100267.00
2018-08-03T14:22:16.762Z,100262.00
2018-08-03T14:24:44.648Z,100260.00
2018-08-03T14:27:12.316Z,100257.00
2018-08-03T14:29:40.097Z,100258.00
2018-08-03T14:32:08.006Z,100252.00
2018-08-03T14:34:35.643Z,100252.00
2018-08-03T14:37:03.331Z,100249.00
2018-08-03T14:39:31.100Z,100234.00
2018-08-03T14:41:58.711Z,100235.00
2018-08-03T14:44:26.378Z,100234.00
2018-08-03T14:46:54.304Z,100240.00
2018-08-03T14:49:21.967Z,100233.00
2018-08-03T14:51:49.668Z,100228.00
2018-08-03T14:54:17.598Z,100224.00
2018-08-03T14:56:45.343Z,100223.00
2018-08-03T14:59:13.138Z,100222.00
2018-08-03T15:01:41.128Z,100224.00
2018-08-03T15:04:08.801Z,100220.00
2018-08-03T15:06:36.528Z,100218.00
2018-08-03T15:09:07.617Z,100218.00
2018-08-03T15:11:35.231Z,100217.00
2018-08-03T15:14:03.122Z,100212.00
2018-08-03T15:16:31.125Z,100213.00
2018-08-03T15:18:58.750Z,100209.00
2018-08-03T15:21:26.456Z,100209.00
2018-08-03T15:23:54.255Z,100212.00
2018-08-03T15:26:21.851Z,100209.00
2018-08-03T15:28:49.915Z,100206.00
2018-08-03T15:31:17.491Z,100206.00
2018-08-03T15:33:45.209Z,100204.00
2018-08-03T15:36:13.200Z,100205.00
2018-08-03T15:38:41.016Z,100198.00
2018-08-03T15:41:08.647Z,100197.00
2018-08-03T15:43:36.313Z,100193.00
2018-08-03T15:46:34.700Z,100191.00
2018-08-03T15:49:25.692Z,100193.00
2018-08-03T15:51:53.656Z,100189.00
2018-08-03T15:54:31.430Z,100184.00
2018-08-03T15:57:38.217Z,100191.00
2018-08-03T16:00:13.133Z,100190.00
2018-08-03T16:02:41.608Z,100184.00
2018-08-03T16:05:10.315Z,100183.00
2018-08-03T16:07:51.907Z,100176.00
2018-08-03T16:10:44.965Z,100175.00
2018-08-03T16:13:13.434Z,100172.00
2018-08-03T16:15:54.188Z,100174.00
2018-08-03T16:19:00.912Z,100174.00
2018-08-03T16:21:37.018Z,100172.00
2018-08-03T16:24:05.390Z,100177.00
2018-08-03T16:26:33.263Z,100173.00
2018-08-03T16:29:01.040Z,100174.00
2018-08-03T16:31:28.688Z,100169.00
2018-08-03T16:33:57.160Z,100169.00
2018-08-03T16:36:24.827Z,100168.00
2018-08-03T16:38:52.539Z,100169.00
2018-08-03T16:41:20.232Z,100166.00
2018-08-03T16:43:47.888Z,100168.00
2018-08-03T16:46:15.611Z,100167.00
2018-08-03T16:48:43.276Z,100167.00
2018-08-03T16:51:10.849Z,100173.00
2018-08-03T16:53:38.560Z,100172.00
2018-08-03T16:56:06.617Z,100173.00
2018-08-03T16:58:34.264Z,100177.00
2018-08-03T17:01:07.888Z,100175.00
2018-08-03T17:03:46.564Z,100167.00
2018-08-03T17:06:16.682Z,100164.00
2018-08-03T17:08:45.412Z,100164.00
2018-08-03T17:11:51.687Z,100176.00
2018-08-03T17:14:26.940Z,100174.00
2018-08-03T17:16:56.872Z,100172.00
2018-08-03T17:19:27.465Z,100170.00
2018-08-03T17:21:55.276Z,100166.00
2018-08-03T17:24:22.889Z,100166.00
2018-08-03T17:26:50.568Z,100163.00
2018-08-03T17:29:18.704Z,100161.00
2018-08-03T17:31:46.339Z,100156.00
2018-08-03T17:34:13.982Z,100156.00
2018-08-03T17:36:41.925Z,100154.00
2018-08-03T17:39:10.557Z,100154.00
2018-08-03T17:41:38.239Z,100150.00
2018-08-03T17:44:08.331Z,100156.00
2018-08-03T17:46:50.292Z,100152.00
2018-08-03T17:49:18.053Z,100155.00
2018-08-03T17:51:45.826Z,100159.00
2018-08-03T17:54:13.460Z,100163.00
2018-08-03T17:56:41.176Z,100157.00
2018-08-03T17:59:09.357Z,100167.00
2018-08-03T18:01:37.027Z,100166.00
2018-08-03T18:04:04.696Z,100168.00
2018-08-03T18:06:32.655Z,100167.00
2018-08-03T18:09:00.311Z,100173.00
2018-08-03T18:11:28.029Z,100173.00
2018-08-03T18:13:55.788Z,100173.00
2018-08-03T18:16:23.458Z,100176.00
2018-08-03T18:18:51.272Z,100173.00
2018-08-03T18:21:19.290Z,100177.00
2018-08-03T18:23:46.936Z,100179.00
2018-08-03T18:26:29.036Z,100175.00
2018-08-03T18:28:57.564Z,100174.00
2018-08-03T18:31:25.340Z,100179.00
2018-08-03T18:33:53.368Z,100183.00
2018-08-03T18:36:20.973Z,100182.00
2018-08-03T18:38:48.683Z,100182.00
2018-08-03T18:41:16.613Z,100183.00
2018-08-03T18:43:44.301Z,100188.00
2018-08-03T18:46:12.004Z,100185.00
2018-08-03T18:48:39.888Z,100185.00
2018-08-03T18:51:07.579Z,100188.00
2018-08-03T18:53:35.294Z,100192.00
2018-08-03T18:56:03.280Z,100197.00
2018-08-03T18:58:30.898Z,100201.00
2018-08-03T19:00:58.584Z,100195.00
2018-08-03T19:03:26.526Z,100204.00
2018-08-03T19:05:54.690Z,100207.00
2018-08-03T19:08:22.355Z,100214.00
2018-08-03T19:10:50.330Z,100214.00
2018-08-03T19:13:18.020Z,100214.00
2018-08-03T19:15:46.152Z,100212.00
2018-08-03T19:18:14.243Z,100207.00
2018-08-03T19:20:41.889Z,100210.00
2018-08-03T19:23:09.543Z,100215.00
2018-08-03T19:25:37.764Z,100216.00
2018-08-03T19:28:05.403Z,100212.00
2018-08-03T19:30:33.002Z,100212.00
2018-08-03T19:33:01.384Z,100207.00
2018-08-03T19:35:29.132Z,100208.00
2018-08-03T19:37:56.900Z,100206.00
2018-08-03T19:40:24.784Z,100203.00
2018-08-03T19:42:52.497Z,100208.00
2018-08-03T19:45:20.136Z,100208.00
2018-08-03T19:47:55.779Z,100213.00
2018-08-03T19:50:38.304Z,100212.00
2018-08-03T19:53:19.628Z,100208.00
2018-08-03T19:55:47.289Z,100214.00
2018-08-03T19:58:14.950Z,100217.00
2018-08-03T20:00:42.843Z,100215.00
2018-08-03T20:03:11.539Z,100215.00
2018-08-03T20:05:39.425Z,100213.00
2018-08-03T20:08:07.227Z,100215.00
2018-08-03T20:10:34.953Z,100212.00
2018-08-03T20:13:02.546Z,100215.00
2018-08-03T20:15:30.731Z,100215.00
2018-08-03T20:17:58.452Z,100217.00
2018-08-03T20:20:26.128Z,100216.00
2018-08-03T20:22:54.010Z,100215.00
2018-08-03T20:25:21.981Z,100214.00
2018-08-03T20:27:49.672Z,100215.00
2018-08-03T20:30:17.387Z,100213.00
2018-08-03T20:32:45.304Z,100221.00
2018-08-03T20:35:12.937Z,100224.00
2018-08-03T20:37:40.559Z,100223.00
2018-08-03T20:40:09.102Z,100223.00
2018-08-03T20:42:37.176Z,100226.00
2018-08-03T20:45:05.291Z,100226.00
2018-08-03T20:47:33.225Z,100221.00
2018-08-03T20:50:01.057Z,100224.00
2018-08-03T20:52:28.689Z,100226.00
2018-08-03T20:54:56.326Z,100218.00
2018-08-03T20:57:24.188Z,100225.00
2018-08-03T20:59:51.843Z,100238.00
2018-08-03T21:02:19.528Z,100240.00
2018-08-03T21:04:47.228Z,100240.00
2018-08-03T21:07:14.905Z,100239.00
2018-08-03T21:09:42.662Z,100239.00
2018-08-03T21:12:10.280Z,100247.00
2018-08-03T21:14:39.611Z,100244.00
2018-08-03T21:17:07.324Z,100246.00
2018-08-03T21:19:34.759Z,100242.00
2018-08-03T21:22:03.387Z,100246.00
2018-08-03T21:24:31.052Z,100245.00
2018-08-03T21:26:58.780Z,100246.00
2018-08-03T21:29:26.712Z,100243.00
2018-08-03T21:31:54.348Z,100244.00
2018-08-03T21:34:22.036Z,100241.00
2018-08-03T21:36:49.799Z,100239.00
2018-08-03T21:39:17.419Z,100238.00
2018-08-03T21:41:45.122Z,100243.00
2018-08-03T21:44:12.915Z,100247.00
2018-08-03T21:46:40.556Z,100246.00
2018-08-03T21:49:08.249Z,100244.00
2018-08-03T21:51:36.191Z,100241.00
2018-08-03T21:54:04.364Z,100243.00
2018-08-03T21:56:32.072Z,100245.00
2018-08-03T21:58:59.748Z,100243.00
2018-08-03T22:01:27.717Z,100245.00
2018-08-03T22:03:55.345Z,100246.00
2018-08-03T22:06:23.040Z,100239.00
2018-08-03T22:08:50.760Z,100237.00
2018-08-03T22:11:18.438Z,100233.00
2018-08-03T22:13:46.390Z,100242.00
2018-08-03T22:16:15.029Z,100245.00
2018-08-03T22:18:42.995Z,100242.00
2018-08-03T22:21:10.920Z,100243.00
2018-08-03T22:23:38.643Z,100241.00
2018-08-03T22:26:06.800Z,100241.00
2018-08-03T22:28:34.688Z,100244.00
2018-08-03T22:31:02.372Z,100240.00
2018-08-03T22:33:30.044Z,100239.00
2018-08-03T22:35:58.089Z,100237.00
2018-08-03T22:38:25.804Z,100233.00
2018-08-03T22:40:53.530Z,100237.00
2018-08-03T22:43:21.480Z,100231.00
2018-08-03T22:45:49.210Z,100237.00
2018-08-03T22:48:16.903Z,100234.00
2018-08-03T22:50:44.669Z,100238.00
2018-08-03T22:53:12.328Z,100241.00
2018-08-03T22:55:39.981Z,100239.00
2018-08-03T22:58:14.742Z,100237.00
2018-08-03T23:00:42.459Z,100239.00
2018-08-03T23:03:10.163Z,100242.00
2018-08-03T23:05:38.250Z,100236.00
2018-08-03T23:08:05.949Z,100233.00
2018-08-03T23:10:33.652Z,100232.00
2018-08-03T23:15:26.700Z,100231.00
2018-08-03T23:17:56.541Z,100229.00
2018-08-03T23:20:24.422Z,100228.00
2018-08-03T23:22:52.038Z,100224.00
2018-08-03T23:25:19.904Z,100219.00
2018-08-03T23:27:47.595Z,100222.00
2018-08-03T23:30:15.534Z,100217.00
2018-08-03T23:32:43.198Z,100218.00
2018-08-03T23:35:10.871Z,100232.00
2018-08-03T23:37:38.848Z,100237.00
2018-08-03T23:40:06.593Z,100232.00
2018-08-03T23:42:35.096Z,100231.00
2018-08-03T23:45:02.969Z,100239.00
2018-08-03T23:47:30.756Z,100233.00
2018-08-03T23:49:58.563Z,100231.00
2018-08-03T23:52:26.184Z,100232.00
2018-08-03T23:54:54.724Z,100228.00
2018-08-03T23:57:22.412Z,100225.00
2018-08-03T23:59:50.044Z,100220.00
